Fairview Valley, Nevada Weather observations

Data are for observation ending at time listed.
 Day   Time    Ave.   Ave.  Ave.  Vector   Max.   Stn.    Total    Solar   Ave.   Ave.    #1       #2
  of    of     Air    Rel.  Wind   Wind    Wind   Baro.  Precip.   Rad.    Soil   Vis.   Cloud   Cloud
Year   Day     Temp.  Hum.  Speed  Dir.    Gust   Pres.                    Temp.          Ceil    Ceil
2016   (PST)    F      %     mph   deg.    mph     mb.     in.     W/m2     F     (km)   k ft.   k ft.
------------------------------------------------------------------------------------------------------
 181    0:00  999.0   999  999.0   999    999.0    999    999.00     999   999.0   999.0  999.0  999.0
 181    0:10  999.0   999  999.0   999    999.0    999    999.00     999   999.0   999.0  999.0  999.0
 181    0:20  999.0   999  999.0   999    999.0    999    999.00     999   999.0   999.0  999.0  999.0
 181    0:30  999.0   999  999.0   999    999.0    999    999.00     999   999.0   999.0  999.0  999.0
 181    0:40  999.0   999  999.0   999    999.0    999    999.00     999   999.0   999.0  999.0  999.0
 181    0:50  999.0   999  999.0   999    999.0    999    999.00     999   999.0   999.0  999.0  999.0
 181    1:00  999.0   999  999.0   999    999.0    999    999.00     999   999.0   999.0  999.0  999.0
 181    1:10  999.0   999  999.0   999    999.0    999    999.00     999   999.0   999.0  999.0  999.0
 181    1:20  999.0   999  999.0   999    999.0    999    999.00     999   999.0   999.0  999.0  999.0
 181    1:30  999.0   999  999.0   999    999.0    999    999.00     999   999.0   999.0  999.0  999.0
 181    1:40  999.0   999  999.0   999    999.0    999    999.00     999   999.0   999.0  999.0  999.0
 181    1:50  999.0   999  999.0   999    999.0    999    999.00     999   999.0   999.0  999.0  999.0
 181    2:00  999.0   999  999.0   999    999.0    999    999.00     999   999.0   999.0  999.0  999.0
 181    2:10  999.0   999  999.0   999    999.0    999    999.00     999   999.0   999.0  999.0  999.0
 181    2:20  999.0   999  999.0   999    999.0    999    999.00     999   999.0   999.0  999.0  999.0
 181    2:30  999.0   999  999.0   999    999.0    999    999.00     999   999.0   999.0  999.0  999.0
 181    2:40  999.0   999  999.0   999    999.0    999    999.00     999   999.0   999.0  999.0  999.0
 181    2:50  999.0   999  999.0   999    999.0    999    999.00     999   999.0   999.0  999.0  999.0
 181    3:00  999.0   999  999.0   999    999.0    999    999.00     999   999.0   999.0  999.0  999.0
 181    3:10  999.0   999  999.0   999    999.0    999    999.00     999   999.0   999.0  999.0  999.0
 181    3:20  999.0   999  999.0   999    999.0    999    999.00     999   999.0   999.0  999.0  999.0
 181    3:30  999.0   999  999.0   999    999.0    999    999.00     999   999.0   999.0  999.0  999.0
 181    3:40  999.0   999  999.0   999    999.0    999    999.00     999   999.0   999.0  999.0  999.0
 181    3:50  999.0   999  999.0   999    999.0    999    999.00     999   999.0   999.0  999.0  999.0
 181    4:00  999.0   999  999.0   999    999.0    999    999.00     999   999.0   999.0  999.0  999.0
 181    4:10  999.0   999  999.0   999    999.0    999    999.00     999   999.0   999.0  999.0  999.0
 181    4:20  999.0   999  999.0   999    999.0    999    999.00     999   999.0   999.0  999.0  999.0
 181    4:30  999.0   999  999.0   999    999.0    999    999.00     999   999.0   999.0  999.0  999.0
 181    4:40  999.0   999  999.0   999    999.0    999    999.00     999   999.0   999.0  999.0  999.0
 181    4:50  999.0   999  999.0   999    999.0    999    999.00     999   999.0   999.0  999.0  999.0
 181    5:00  999.0   999  999.0   999    999.0    999    999.00     999   999.0   999.0  999.0  999.0
 181    5:10  999.0   999  999.0   999    999.0    999    999.00     999   999.0   999.0  999.0  999.0
 181    5:20  999.0   999  999.0   999    999.0    999    999.00     999   999.0   999.0  999.0  999.0
 181    5:30  999.0   999  999.0   999    999.0    999    999.00     999   999.0   999.0  999.0  999.0
 181    5:40  999.0   999  999.0   999    999.0    999    999.00     999   999.0   999.0  999.0  999.0
 181    5:50   67.5    29    5.1   196      7.9    873     0.00      39    82.2   999.0    0.0  999.0
 181    6:00   64.6    32    5.5   184      7.5    873     0.00      56    82.1   999.0    0.0  999.0
 181    6:10   66.7    30    6.6   213      9.1    873     0.00      61    82.0   999.0    0.0  999.0
 181    6:20  999.0   999  999.0   999    999.0    999    999.00     999   999.0   999.0  999.0  999.0
 181    6:30  999.0   999  999.0   999    999.0    999    999.00     999   999.0   999.0  999.0  999.0
 181    6:40  999.0   999  999.0   999    999.0    999    999.00     999   999.0   999.0  999.0  999.0
 181    6:50   74.8    23    1.5   106      3.1    874     0.00     273    81.4   999.0    6.5  999.0
 181    7:00   78.4    21    1.7   126      4.1    874     0.00     497    81.3   999.0    2.3  999.0
 181    7:10   81.7    18    2.7   156      4.2    874     0.00     487    81.2   999.0    0.8  999.0
 181    7:20   82.5    16    2.0   195      3.6    874     0.00     208    81.1   999.0    0.0  999.0
 181    7:30   82.1    16    3.4   249      5.6    874     0.00     401    81.0   999.0    0.0  999.0
 181    7:40   83.6    14    5.2   235      9.8    874     0.00     603    80.9   999.0    0.0  999.0
 181    7:50   84.8    13    4.9   228      9.1    874     0.00     614    80.8   999.0    0.0  999.0
 181    8:00   86.3    12    3.3   190      6.1    874     0.00     640    80.8   999.0    0.0  999.0
 181    8:10   87.5    12    1.8   193      4.7    874     0.00     668    80.7   999.0    0.0  999.0
 181    8:20   87.9    12    2.6   110      6.0    874     0.00     685    80.7   999.0    0.0  999.0
 181    8:30   88.1    12    3.3   172      6.8    874     0.00     697    80.7   999.0    0.0  999.0
 181    8:40   88.6    12    4.2   156      7.6    874     0.00     720    80.6   999.0    0.0  999.0
 181    8:50   89.0    12    3.9   203      8.0    873     0.00     745    80.5   999.0    0.0  999.0
 181    9:00   89.0    11    4.6   229      9.4    873     0.00     783    80.5   999.0    0.0  999.0
 181    9:10   89.5    11    4.5   248      8.9    873     0.00     851    80.5   999.0    0.0  999.0
 181    9:20   89.7    11    3.1   245      6.3    873     0.00     869    80.5   999.0    0.0  999.0
 181    9:30   90.3    11    4.6   323      8.2    873     0.00     864    80.5   999.0    0.0  999.0
 181    9:40   90.7    11    5.6   274     12.1    873     0.00     881    80.5   999.0    0.0  999.0
 181    9:50   90.8    11    5.4   266     10.3    873     0.00     905    80.5   999.0    0.0  999.0
 181   10:00   91.5    11    4.2   262     12.0    873     0.00     926    80.6   999.0    0.0  999.0
 181   10:10   91.6    11    4.7   211     11.2    873     0.00     918    80.6   999.0    0.0  999.0
 181   10:20   92.2    11    4.6   326     12.0    873     0.00    1005    80.7   999.0    0.0  999.0
 181   10:30   93.4    11    4.3   232      8.6    873     0.00    1019    80.7   999.0    0.0  999.0
 181   10:40   94.0    11    5.6   200     12.7    873     0.00    1015    80.7   999.0    0.0  999.0
 181   10:50   94.5    11    4.5   181     11.4    873     0.00    1007    80.8   999.0    0.0  999.0
 181   11:00   94.9    11    6.4   218     11.2    872     0.00    1000    80.9   999.0    0.0  999.0
 181   11:10   94.6    11    7.2   251     11.5    872     0.00    1004    81.0   999.0    0.0  999.0
 181   11:20   94.2    11    8.8   256     16.6    872     0.00    1011    81.1   999.0    0.0  999.0
 181   11:30   94.3    11    7.3   238     13.7    872     0.00    1017    81.2   999.0    0.0  999.0
 181   11:40   94.5    11    5.4   290     12.7    872     0.00    1022    81.4   999.0    0.0  999.0
 181   11:50   94.2    11    5.6   324     12.1    872     0.00    1026    81.5   999.0    0.0  999.0
 181   12:00   95.0    10    7.1   255     14.7    872     0.00    1028    81.7   999.0    0.0  999.0
 181   12:10   95.9    10    3.6   195     10.7    872     0.00    1029    81.9   999.0    0.0  999.0
 181   12:20   95.8    10    8.8   267     19.0    871     0.00    1008    82.1   999.0    0.0  999.0
 181   12:30   96.0    10   10.8   270     17.2    871     0.00    1025    82.3   999.0    0.0  999.0
 181   12:40   96.2    10    7.4   262     16.8    871     0.00    1020    82.5   999.0    0.0  999.0
 181   12:50   96.5    10    8.4   259     21.2    871     0.00    1014    82.8   999.0    0.0  999.0
 181   13:00   96.6    10    4.5   288     11.9    871     0.00    1006    83.0   999.0    0.0  999.0
 181   13:10   97.1    10   10.7   289     18.4    871     0.00     996    83.3   999.0    0.0  999.0
 181   13:20   96.5    10    7.8   260     17.4    871     0.00     987    83.6   999.0    0.0  999.0
 181   13:30   97.1    10    3.5   285      8.7    871     0.00     976    83.9   999.0    0.0  999.0
 181   13:40   97.7    10    6.0   297     13.4    870     0.00     963    84.3   999.0    0.0  999.0
 181   13:50   98.6     9    9.9   290     16.7    870     0.00     949    84.6   999.0    0.0  999.0
 181   14:00   97.7    10    5.8   264     15.4    870     0.00     935    84.9   999.0    0.0  999.0
 181   14:10   98.1    10    4.8   246     13.7    870     0.00     914    85.2   999.0    0.0  999.0
 181   14:20   98.9     9    3.7   143      7.2    870     0.00     897    85.5   999.0    0.0  999.0
 181   14:30   98.7     9    3.4   327      7.1    870     0.00     881    85.8   999.0    0.0  999.0
 181   14:40   98.7     9   11.9   303     21.5    870     0.00     864    86.1   999.0    0.0  999.0
 181   14:50   98.1     9   10.7   276     17.2    870     0.00     839    86.5   999.0    0.0  999.0
 181   15:00   98.6     9    8.0   230     15.3    870     0.00     837    86.8   999.0    0.0  999.0
 181   15:10   98.3     9    8.9   308     21.9    870     0.00     499    87.1   999.0    0.0  999.0
 181   15:20   96.9    10    6.3   288     13.4    870     0.00     596    87.4   999.0    0.0  999.0
 181   15:30   99.0     9    2.5   184      6.6    870     0.00     692    87.7   999.0    0.0  999.0
 181   15:40   99.3     9   10.9   277     18.0    869     0.00     708    88.0   999.0    0.0  999.0
 181   15:50   99.1     9   11.8   309     20.1    869     0.00     673    88.3   999.0    0.0  999.0
 181   16:00   98.9     9   16.5   310     23.0    869     0.00     652    88.6   999.0    0.0  999.0
 181   16:10   98.4     9    6.5   312     12.6    869     0.00     604    88.9   999.0    0.0  999.0
 181   16:20   98.6     9   12.7   278     19.6    869     0.00     486    89.1   999.0    0.0  999.0
 181   16:30   98.2     9    9.3   274     15.4    869     0.00     602    89.4   999.0    0.0  999.0
 181   16:40   98.7     9    9.9   254     16.7    869     0.00     593    89.6   999.0    0.0  999.0

Return to Fairview Valley graphs page.


Western Regional Climate Center,wrcc@dri.edu